sensor_id;sensor_type;location;lat;lon;timestamp;pressure;altitude;pressure_sealevel;temperature;humidity
70027;BME280;57506;50.092;15.804;2023-11-21T00:01:01;98483.75;;;7.21;100.00
70027;BME280;57506;50.092;15.804;2023-11-21T00:03:30;98487.59;;;7.33;100.00
70027;BME280;57506;50.092;15.804;2023-11-21T00:05:55;98479.81;;;7.38;100.00
70027;BME280;57506;50.092;15.804;2023-11-21T00:08:21;98478.59;;;7.41;100.00
70027;BME280;57506;50.092;15.804;2023-11-21T00:10:47;98486.69;;;7.48;100.00
70027;BME280;57506;50.092;15.804;2023-11-21T00:13:13;98474.53;;;7.45;100.00
70027;BME280;57506;50.092;15.804;2023-11-21T00:15:39;98486.28;;;7.44;100.00
70027;BME280;57506;50.092;15.804;2023-11-21T00:18:06;98487.97;;;7.52;100.00
70027;BME280;57506;50.092;15.804;2023-11-21T00:20:31;98494.81;;;7.54;100.00
70027;BME280;57506;50.092;15.804;2023-11-21T00:22:57;98489.19;;;7.49;100.00
70027;BME280;57506;50.092;15.804;2023-11-21T00:25:22;98503.69;;;7.55;100.00
70027;BME280;57506;50.092;15.804;2023-11-21T00:27:48;98496.28;;;7.57;100.00
70027;BME280;57506;50.092;15.804;2023-11-21T00:30:14;98492.59;;;7.58;100.00
70027;BME280;57506;50.092;15.804;2023-11-21T00:32:40;98498.00;;;7.64;100.00
70027;BME280;57506;50.092;15.804;2023-11-21T00:35:05;98501.50;;;7.65;100.00
70027;BME280;57506;50.092;15.804;2023-11-21T00:37:31;98509.69;;;7.57;100.00
70027;BME280;57506;50.092;15.804;2023-11-21T00:39:57;98513.03;;;7.59;100.00
70027;BME280;57506;50.092;15.804;2023-11-21T00:42:23;98512.38;;;7.57;100.00
70027;BME280;57506;50.092;15.804;2023-11-21T00:44:49;98511.75;;;7.55;100.00
70027;BME280;57506;50.092;15.804;2023-11-21T00:47:14;98503.63;;;7.48;100.00
70027;BME280;57506;50.092;15.804;2023-11-21T00:49:40;98505.22;;;7.43;100.00
70027;BME280;57506;50.092;15.804;2023-11-21T00:52:06;98503.09;;;7.38;100.00
70027;BME280;57506;50.092;15.804;2023-11-21T00:54:31;98492.31;;;7.31;100.00
70027;BME280;57506;50.092;15.804;2023-11-21T00:56:57;98503.84;;;7.32;100.00
70027;BME280;57506;50.092;15.804;2023-11-21T00:59:22;98499.78;;;7.36;100.00
70027;BME280;57506;50.092;15.804;2023-11-21T01:01:48;98506.81;;;7.37;100.00
70027;BME280;57506;50.092;15.804;2023-11-21T01:04:14;98496.47;;;7.34;100.00
70027;BME280;57506;50.092;15.804;2023-11-21T01:06:39;98507.63;;;7.37;100.00
70027;BME280;57506;50.092;15.804;2023-11-21T01:09:05;98503.03;;;7.31;100.00
70027;BME280;57506;50.092;15.804;2023-11-21T01:11:34;98491.88;;;7.28;100.00
70027;BME280;57506;50.092;15.804;2023-11-21T01:14:03;98492.06;;;7.26;100.00
70027;BME280;57506;50.092;15.804;2023-11-21T01:16:29;98494.75;;;7.26;100.00
70027;BME280;57506;50.092;15.804;2023-11-21T01:18:55;98489.75;;;7.23;100.00
70027;BME280;57506;50.092;15.804;2023-11-21T01:21:20;98493.28;;;7.24;100.00
70027;BME280;57506;50.092;15.804;2023-11-21T01:23:47;98487.47;;;7.20;100.00
70027;BME280;57506;50.092;15.804;2023-11-21T01:26:12;98481.78;;;7.09;100.00
70027;BME280;57506;50.092;15.804;2023-11-21T01:28:38;98487.97;;;7.09;100.00
70027;BME280;57506;50.092;15.804;2023-11-21T01:31:04;98497.00;;;7.08;100.00
70027;BME280;57506;50.092;15.804;2023-11-21T01:33:29;98505.22;;;7.07;100.00
70027;BME280;57506;50.092;15.804;2023-11-21T01:35:55;98500.44;;;7.02;100.00
70027;BME280;57506;50.092;15.804;2023-11-21T01:38:21;98505.41;;;7.05;100.00
70027;BME280;57506;50.092;15.804;2023-11-21T01:40:47;98504.41;;;7.06;100.00
70027;BME280;57506;50.092;15.804;2023-11-21T01:43:13;98490.81;;;7.08;100.00
70027;BME280;57506;50.092;15.804;2023-11-21T01:45:38;98484.25;;;7.10;100.00
70027;BME280;57506;50.092;15.804;2023-11-21T01:48:04;98496.13;;;7.22;100.00
70027;BME280;57506;50.092;15.804;2023-11-21T01:50:32;98493.91;;;7.26;100.00
70027;BME280;57506;50.092;15.804;2023-11-21T01:52:59;98493.13;;;7.32;100.00
70027;BME280;57506;50.092;15.804;2023-11-21T01:55:27;98487.91;;;7.24;100.00
70027;BME280;57506;50.092;15.804;2023-11-21T01:57:53;98480.63;;;7.18;100.00
70027;BME280;57506;50.092;15.804;2023-11-21T02:00:19;98488.09;;;7.22;100.00
70027;BME280;57506;50.092;15.804;2023-11-21T02:02:46;98492.94;;;7.33;100.00
70027;BME280;57506;50.092;15.804;2023-11-21T02:05:13;98492.72;;;7.28;100.00
70027;BME280;57506;50.092;15.804;2023-11-21T02:07:40;98495.13;;;7.23;100.00
70027;BME280;57506;50.092;15.804;2023-11-21T02:10:07;98488.09;;;7.22;100.00
70027;BME280;57506;50.092;15.804;2023-11-21T02:12:33;98490.31;;;7.19;100.00
70027;BME280;57506;50.092;15.804;2023-11-21T02:15:03;98490.50;;;7.17;100.00
70027;BME280;57506;50.092;15.804;2023-11-21T02:17:35;98496.06;;;7.16;100.00
70027;BME280;57506;50.092;15.804;2023-11-21T02:20:01;98497.66;;;7.10;100.00
70027;BME280;57506;50.092;15.804;2023-11-21T02:22:31;98492.03;;;7.05;100.00
70027;BME280;57506;50.092;15.804;2023-11-21T02:25:01;98489.91;;;7.00;100.00
70027;BME280;57506;50.092;15.804;2023-11-21T02:27:26;98482.88;;;6.99;100.00
70027;BME280;57506;50.092;15.804;2023-11-21T02:29:53;98477.75;;;6.98;100.00
70027;BME280;57506;50.092;15.804;2023-11-21T02:32:19;98481.50;;;7.03;100.00
70027;BME280;57506;50.092;15.804;2023-11-21T02:34:48;98471.25;;;7.07;100.00
70027;BME280;57506;50.092;15.804;2023-11-21T02:37:13;98476.22;;;7.10;100.00
70027;BME280;57506;50.092;15.804;2023-11-21T02:39:39;98475.25;;;7.18;100.00
70027;BME280;57506;50.092;15.804;2023-11-21T02:42:05;98470.72;;;7.18;100.00
70027;BME280;57506;50.092;15.804;2023-11-21T02:44:30;98473.31;;;7.26;100.00
70027;BME280;57506;50.092;15.804;2023-11-21T02:46:56;98472.84;;;7.23;100.00
70027;BME280;57506;50.092;15.804;2023-11-21T02:49:23;98485.56;;;7.35;100.00
70027;BME280;57506;50.092;15.804;2023-11-21T02:51:48;98474.06;;;7.42;100.00
70027;BME280;57506;50.092;15.804;2023-11-21T02:54:14;98478.22;;;7.44;100.00
70027;BME280;57506;50.092;15.804;2023-11-21T02:56:40;98495.47;;;7.56;100.00
70027;BME280;57506;50.092;15.804;2023-11-21T02:59:05;98481.34;;;7.48;100.00
70027;BME280;57506;50.092;15.804;2023-11-21T03:01:31;98480.31;;;7.49;100.00
70027;BME280;57506;50.092;15.804;2023-11-21T03:03:57;98488.88;;;7.59;100.00
70027;BME280;57506;50.092;15.804;2023-11-21T03:06:22;98483.91;;;7.56;100.00
70027;BME280;57506;50.092;15.804;2023-11-21T03:08:48;98491.38;;;7.60;100.00
70027;BME280;57506;50.092;15.804;2023-11-21T03:11:14;98493.88;;;7.62;100.00
70027;BME280;57506;50.092;15.804;2023-11-21T03:13:40;98484.56;;;7.58;100.00
70027;BME280;57506;50.092;15.804;2023-11-21T03:16:10;98490.78;;;7.65;100.00
70027;BME280;57506;50.092;15.804;2023-11-21T03:18:37;98485.19;;;7.60;100.00
70027;BME280;57506;50.092;15.804;2023-11-21T03:21:03;98483.53;;;7.59;100.00
70027;BME280;57506;50.092;15.804;2023-11-21T03:23:30;98498.00;;;7.64;100.00
70027;BME280;57506;50.092;15.804;2023-11-21T03:25:55;98496.75;;;7.60;100.00
70027;BME280;57506;50.092;15.804;2023-11-21T03:28:21;98486.03;;;7.60;100.00
70027;BME280;57506;50.092;15.804;2023-11-21T03:30:46;98499.47;;;7.67;100.00
70027;BME280;57506;50.092;15.804;2023-11-21T03:33:11;98493.47;;;7.65;100.00
70027;BME280;57506;50.092;15.804;2023-11-21T03:35:37;98497.44;;;7.69;100.00
70027;BME280;57506;50.092;15.804;2023-11-21T03:38:03;98502.78;;;7.69;100.00
70027;BME280;57506;50.092;15.804;2023-11-21T03:40:29;98493.47;;;7.65;100.00
70027;BME280;57506;50.092;15.804;2023-11-21T03:42:56;98500.13;;;7.69;100.00
70027;BME280;57506;50.092;15.804;2023-11-21T03:45:22;98510.28;;;7.73;100.00
70027;BME280;57506;50.092;15.804;2023-11-21T03:47:48;98511.09;;;7.74;100.00
70027;BME280;57506;50.092;15.804;2023-11-21T03:50:13;98519.16;;;7.74;100.00
70027;BME280;57506;50.092;15.804;2023-11-21T03:52:39;98519.16;;;7.74;100.00
70027;BME280;57506;50.092;15.804;2023-11-21T03:55:04;98516.66;;;7.72;100.00
70027;BME280;57506;50.092;15.804;2023-11-21T03:57:30;98525.28;;;7.68;100.00
70027;BME280;57506;50.092;15.804;2023-11-21T03:59:55;98521.91;;;7.59;100.00
70027;BME280;57506;50.092;15.804;2023-11-21T04:02:21;98518.31;;;7.52;100.00
70027;BME280;57506;50.092;15.804;2023-11-21T04:04:46;98526.34;;;7.52;100.00
70027;BME280;57506;50.092;15.804;2023-11-21T04:07:12;98521.56;;;7.48;100.00
70027;BME280;57506;50.092;15.804;2023-11-21T04:09:39;98525.91;;;7.49;100.00
70027;BME280;57506;50.092;15.804;2023-11-21T04:12:05;98526.50;;;7.44;100.00
70027;BME280;57506;50.092;15.804;2023-11-21T04:14:31;98517.16;;;7.40;100.00
70027;BME280;57506;50.092;15.804;2023-11-21T04:16:57;98518.19;;;7.39;100.00
70027;BME280;57506;50.092;15.804;2023-11-21T04:19:22;98525.84;;;7.42;100.00
70027;BME280;57506;50.092;15.804;2023-11-21T04:21:48;98511.41;;;7.43;100.00
70027;BME280;57506;50.092;15.804;2023-11-21T04:24:14;98525.06;;;7.48;100.00
70027;BME280;57506;50.092;15.804;2023-11-21T04:26:39;98523.03;;;7.50;100.00
70027;BME280;57506;50.092;15.804;2023-11-21T04:29:05;98521.00;;;7.52;100.00
70027;BME280;57506;50.092;15.804;2023-11-21T04:31:30;98511.09;;;7.53;100.00
70027;BME280;57506;50.092;15.804;2023-11-21T04:33:56;98510.44;;;7.51;100.00
70027;BME280;57506;50.092;15.804;2023-11-21T04:36:21;98520.34;;;7.50;100.00
70027;BME280;57506;50.092;15.804;2023-11-21T04:38:47;98514.03;;;7.58;100.00
70027;BME280;57506;50.092;15.804;2023-11-21T04:41:13;98522.91;;;7.58;100.00
70027;BME280;57506;50.092;15.804;2023-11-21T04:43:38;98531.16;;;7.57;100.00
70027;BME280;57506;50.092;15.804;2023-11-21T04:46:04;98529.47;;;7.56;100.00
70027;BME280;57506;50.092;15.804;2023-11-21T04:48:29;98530.50;;;7.55;100.00
70027;BME280;57506;50.092;15.804;2023-11-21T04:50:55;98531.16;;;7.57;100.00
70027;BME280;57506;50.092;15.804;2023-11-21T04:53:20;98527.00;;;7.54;100.00
70027;BME280;57506;50.092;15.804;2023-11-21T04:55:46;98528.66;;;7.55;100.00
70027;BME280;57506;50.092;15.804;2023-11-21T04:58:12;98532.72;;;7.51;100.00
70027;BME280;57506;50.092;15.804;2023-11-21T05:00:37;98538.19;;;7.58;100.00
70027;BME280;57506;50.092;15.804;2023-11-21T05:03:03;98529.69;;;7.54;100.00
70027;BME280;57506;50.092;15.804;2023-11-21T05:05:30;98519.50;;;7.50;100.00
70027;BME280;57506;50.092;15.804;2023-11-21T05:07:55;98535.69;;;7.56;100.00
70027;BME280;57506;50.092;15.804;2023-11-21T05:10:21;98535.88;;;7.55;100.00
70027;BME280;57506;50.092;15.804;2023-11-21T05:12:49;98531.34;;;7.55;100.00
70027;BME280;57506;50.092;15.804;2023-11-21T05:15:16;98532.16;;;7.56;100.00
70027;BME280;57506;50.092;15.804;2023-11-21T05:17:46;98540.66;;;7.59;100.00
70027;BME280;57506;50.092;15.804;2023-11-21T05:20:15;98540.22;;;7.56;100.00
70027;BME280;57506;50.092;15.804;2023-11-21T05:22:49;98538.75;;;7.53;100.00
70027;BME280;57506;50.092;15.804;2023-11-21T05:25:14;98541.22;;;7.55;100.00
70027;BME280;57506;50.092;15.804;2023-11-21T05:27:40;98548.63;;;7.53;100.00
70027;BME280;57506;50.092;15.804;2023-11-21T05:30:07;98551.03;;;7.48;100.00
70027;BME280;57506;50.092;15.804;2023-11-21T05:32:38;98548.16;;;7.49;100.00
70027;BME280;57506;50.092;15.804;2023-11-21T05:35:04;98549.41;;;7.47;100.00
70027;BME280;57506;50.092;15.804;2023-11-21T05:37:35;98542.38;;;7.46;100.00
70027;BME280;57506;50.092;15.804;2023-11-21T05:40:01;98555.38;;;7.49;100.00
70027;BME280;57506;50.092;15.804;2023-11-21T05:42:31;98549.19;;;7.48;100.00
70027;BME280;57506;50.092;15.804;2023-11-21T05:44:57;98540.25;;;7.41;100.00
70027;BME280;57506;50.092;15.804;2023-11-21T05:47:24;98546.09;;;7.45;100.00
70027;BME280;57506;50.092;15.804;2023-11-21T05:49:51;98537.31;;;7.36;100.00
70027;BME280;57506;50.092;15.804;2023-11-21T05:52:17;98551.81;;;7.42;100.00
70027;BME280;57506;50.092;15.804;2023-11-21T05:54:43;98560.94;;;7.47;100.00
70027;BME280;57506;50.092;15.804;2023-11-21T05:57:09;98549.97;;;7.42;100.00
70027;BME280;57506;50.092;15.804;2023-11-21T05:59:34;98555.38;;;7.49;100.00
70027;BME280;57506;50.092;15.804;2023-11-21T06:02:00;98553.34;;;7.51;100.00
70027;BME280;57506;50.092;15.804;2023-11-21T06:04:25;98557.97;;;7.57;100.00
70027;BME280;57506;50.092;15.804;2023-11-21T06:06:51;98552.16;;;7.53;100.00
70027;BME280;57506;50.092;15.804;2023-11-21T06:09:18;98553.53;;;7.49;100.00
70027;BME280;57506;50.092;15.804;2023-11-21T06:11:43;98575.66;;;7.36;100.00
70027;BME280;57506;50.092;15.804;2023-11-21T06:14:09;98567.31;;;7.10;100.00
70027;BME280;57506;50.092;15.804;2023-11-21T06:16:36;98571.09;;;7.01;100.00
70027;BME280;57506;50.092;15.804;2023-11-21T06:19:01;98572.75;;;7.02;100.00
70027;BME280;57506;50.092;15.804;2023-11-21T06:21:27;98567.50;;;7.09;100.00
70027;BME280;57506;50.092;15.804;2023-11-21T06:23:53;98567.13;;;7.12;100.00
70027;BME280;57506;50.092;15.804;2023-11-21T06:26:18;98560.75;;;7.13;100.00
70027;BME280;57506;50.092;15.804;2023-11-21T06:28:44;98566.38;;;7.18;100.00
70027;BME280;57506;50.092;15.804;2023-11-21T06:31:10;98573.75;;;7.16;100.00
70027;BME280;57506;50.092;15.804;2023-11-21T06:33:36;98583.28;;;7.18;100.00
70027;BME280;57506;50.092;15.804;2023-11-21T06:36:02;98582.00;;;7.14;100.00
70027;BME280;57506;50.092;15.804;2023-11-21T06:38:28;98574.53;;;7.10;100.00
70027;BME280;57506;50.092;15.804;2023-11-21T06:40:56;98570.00;;;7.10;100.00
70027;BME280;57506;50.092;15.804;2023-11-21T06:43:22;98574.16;;;7.13;100.00
70027;BME280;57506;50.092;15.804;2023-11-21T06:45:47;98574.88;;;7.21;100.00
70027;BME280;57506;50.092;15.804;2023-11-21T06:48:13;98579.22;;;7.22;100.00
70027;BME280;57506;50.092;15.804;2023-11-21T06:50:38;98579.94;;;7.16;100.00
70027;BME280;57506;50.092;15.804;2023-11-21T06:53:04;98575.19;;;6.97;100.00
70027;BME280;57506;50.092;15.804;2023-11-21T06:55:32;98574.63;;;6.87;100.00
70027;BME280;57506;50.092;15.804;2023-11-21T06:57:58;98579.06;;;6.80;100.00
70027;BME280;57506;50.092;15.804;2023-11-21T07:00:25;98583.13;;;6.76;100.00
70027;BME280;57506;50.092;15.804;2023-11-21T07:02:51;98579.44;;;6.77;100.00
70027;BME280;57506;50.092;15.804;2023-11-21T07:05:16;98587.47;;;6.91;100.00
70027;BME280;57506;50.092;15.804;2023-11-21T07:07:45;98581.16;;;6.99;100.00
70027;BME280;57506;50.092;15.804;2023-11-21T07:10:11;98589.13;;;7.07;100.00
70027;BME280;57506;50.092;15.804;2023-11-21T07:12:37;98589.59;;;7.11;100.00
70027;BME280;57506;50.092;15.804;2023-11-21T07:15:03;98592.34;;;7.17;100.00
70027;BME280;57506;50.092;15.804;2023-11-21T07:17:30;98593.25;;;7.24;100.00
70027;BME280;57506;50.092;15.804;2023-11-21T07:19:56;98588.78;;;7.31;100.00
70027;BME280;57506;50.092;15.804;2023-11-21T07:22:22;98592.41;;;7.38;100.00
70027;BME280;57506;50.092;15.804;2023-11-21T07:24:48;98587.97;;;7.46;100.00
70027;BME280;57506;50.092;15.804;2023-11-21T07:27:16;98591.53;;;7.53;100.00
70027;BME280;57506;50.092;15.804;2023-11-21T07:29:42;98603.16;;;7.60;100.00
70027;BME280;57506;50.092;15.804;2023-11-21T07:32:07;98599.06;;;7.64;100.00
70027;BME280;57506;50.092;15.804;2023-11-21T07:34:35;98597.13;;;7.72;100.00
70027;BME280;57506;50.092;15.804;2023-11-21T07:37:01;98588.50;;;7.77;100.00
70027;BME280;57506;50.092;15.804;2023-11-21T07:39:27;98600.00;;;7.92;100.00
70027;BME280;57506;50.092;15.804;2023-11-21T07:41:52;98603.00;;;8.04;100.00
70027;BME280;57506;50.092;15.804;2023-11-21T07:44:18;98608.44;;;8.11;100.00
70027;BME280;57506;50.092;15.804;2023-11-21T07:46:45;98615.50;;;8.18;100.00
70027;BME280;57506;50.092;15.804;2023-11-21T07:49:11;98617.19;;;8.19;100.00
70027;BME280;57506;50.092;15.804;2023-11-21T07:51:37;98614.56;;;8.26;100.00
70027;BME280;57506;50.092;15.804;2023-11-21T07:54:03;98616.63;;;8.24;100.00
70027;BME280;57506;50.092;15.804;2023-11-21T07:56:28;98629.06;;;8.31;100.00
70027;BME280;57506;50.092;15.804;2023-11-21T07:58:54;98633.56;;;8.24;100.00
70027;BME280;57506;50.092;15.804;2023-11-21T08:01:19;98635.94;;;8.34;100.00
70027;BME280;57506;50.092;15.804;2023-11-21T08:03:45;98630.56;;;8.34;100.00
70027;BME280;57506;50.092;15.804;2023-11-21T08:06:10;98628.78;;;8.41;100.00
70027;BME280;57506;50.092;15.804;2023-11-21T08:08:36;98640.75;;;8.45;100.00
70027;BME280;57506;50.092;15.804;2023-11-21T08:11:01;98627.97;;;8.47;100.00
70027;BME280;57506;50.092;15.804;2023-11-21T08:13:29;98638.59;;;8.55;100.00
70027;BME280;57506;50.092;15.804;2023-11-21T08:16:00;98624.97;;;8.57;100.00
70027;BME280;57506;50.092;15.804;2023-11-21T08:18:28;98642.16;;;8.62;100.00
70027;BME280;57506;50.092;15.804;2023-11-21T08:20:55;98638.22;;;8.58;100.00
70027;BME280;57506;50.092;15.804;2023-11-21T08:23:20;98634.50;;;8.59;100.00
70027;BME280;57506;50.092;15.804;2023-11-21T08:25:51;98639.88;;;8.59;100.00
70027;BME280;57506;50.092;15.804;2023-11-21T08:28:16;98644.31;;;8.73;100.00
70027;BME280;57506;50.092;15.804;2023-11-21T08:30:42;98648.47;;;8.76;100.00
70027;BME280;57506;50.092;15.804;2023-11-21T08:33:08;98643.28;;;8.74;100.00
70027;BME280;57506;50.092;15.804;2023-11-21T08:35:37;98642.50;;;8.81;100.00
70027;BME280;57506;50.092;15.804;2023-11-21T08:38:03;98647.72;;;8.89;100.00
70027;BME280;57506;50.092;15.804;2023-11-21T08:40:29;98639.50;;;8.97;100.00
70027;BME280;57506;50.092;15.804;2023-11-21T08:42:55;98640.38;;;9.04;100.00
70027;BME280;57506;50.092;15.804;2023-11-21T08:45:21;98635.78;;;8.98;100.00
70027;BME280;57506;50.092;15.804;2023-11-21T08:47:48;98656.97;;;9.14;100.00
70027;BME280;57506;50.092;15.804;2023-11-21T08:50:14;98645.13;;;9.02;100.00
70027;BME280;57506;50.092;15.804;2023-11-21T08:52:40;98658.75;;;9.00;100.00
70027;BME280;57506;50.092;15.804;2023-11-21T08:55:06;98666.03;;;9.06;100.00
70027;BME280;57506;50.092;15.804;2023-11-21T08:57:38;98658.38;;;9.03;100.00
70027;BME280;57506;50.092;15.804;2023-11-21T09:00:06;98666.72;;;9.15;100.00
70027;BME280;57506;50.092;15.804;2023-11-21T09:02:39;98664.41;;;9.12;100.00
70027;BME280;57506;50.092;15.804;2023-11-21T09:05:08;98667.66;;;9.01;100.00
70027;BME280;57506;50.092;15.804;2023-11-21T09:07:35;98663.94;;;9.02;100.00
70027;BME280;57506;50.092;15.804;2023-11-21T09:10:01;98673.47;;;9.04;100.00
70027;BME280;57506;50.092;15.804;2023-11-21T09:12:27;98668.03;;;8.98;100.00
70027;BME280;57506;50.092;15.804;2023-11-21T09:14:53;98675.97;;;9.06;100.00
70027;BME280;57506;50.092;15.804;2023-11-21T09:17:19;98669.78;;;9.12;100.00
70027;BME280;57506;50.092;15.804;2023-11-21T09:19:44;98672.44;;;9.05;100.00
70027;BME280;57506;50.092;15.804;2023-11-21T09:22:15;98678.84;;;9.04;100.00
70027;BME280;57506;50.092;15.804;2023-11-21T09:24:41;98675.06;;;8.99;100.00
70027;BME280;57506;50.092;15.804;2023-11-21T09:27:07;98673.22;;;8.99;100.00
70027;BME280;57506;50.092;15.804;2023-11-21T09:29:33;98674.44;;;8.97;100.00
70027;BME280;57506;50.092;15.804;2023-11-21T09:31:58;98669.03;;;8.90;100.00
70027;BME280;57506;50.092;15.804;2023-11-21T09:34:25;98675.88;;;8.93;100.00
70027;BME280;57506;50.092;15.804;2023-11-21T09:36:51;98683.38;;;9.04;100.00
70027;BME280;57506;50.092;15.804;2023-11-21T09:39:17;98683.13;;;8.99;100.00
70027;BME280;57506;50.092;15.804;2023-11-21T09:41:52;98680.69;;;9.04;100.00
70027;BME280;57506;50.092;15.804;2023-11-21T09:44:35;98679.03;;;9.03;100.00
70027;BME280;57506;50.092;15.804;2023-11-21T09:47:03;98690.91;;;9.15;100.00
70027;BME280;57506;50.092;15.804;2023-11-21T09:49:28;98687.56;;;9.13;100.00
70027;BME280;57506;50.092;15.804;2023-11-21T09:51:58;98682.56;;;9.03;100.00
70027;BME280;57506;50.092;15.804;2023-11-21T09:54:28;98689.22;;;9.14;100.00
70027;BME280;57506;50.092;15.804;2023-11-21T09:56:57;98692.56;;;9.16;100.00
70027;BME280;57506;50.092;15.804;2023-11-21T09:59:23;98682.84;;;9.15;100.00
70027;BME280;57506;50.092;15.804;2023-11-21T10:01:49;98687.19;;;9.16;100.00
70027;BME280;57506;50.092;15.804;2023-11-21T10:04:15;98693.44;;;9.23;100.00
70027;BME280;57506;50.092;15.804;2023-11-21T10:06:43;98687.66;;;9.26;100.00
70027;BME280;57506;50.092;15.804;2023-11-21T10:09:13;98696.97;;;9.24;100.00
70027;BME280;57506;50.092;15.804;2023-11-21T10:11:43;98700.31;;;9.32;100.00
70027;BME280;57506;50.092;15.804;2023-11-21T10:14:12;98697.63;;;9.32;100.00
70027;BME280;57506;50.092;15.804;2023-11-21T10:16:40;98697.63;;;9.32;100.00
70027;BME280;57506;50.092;15.804;2023-11-21T10:19:09;98691.63;;;9.30;100.00
70027;BME280;57506;50.092;15.804;2023-11-21T10:21:35;98690.97;;;9.28;100.00
70027;BME280;57506;50.092;15.804;2023-11-21T10:24:01;98699.94;;;9.35;100.00
70027;BME280;57506;50.092;15.804;2023-11-21T10:26:32;98697.69;;;9.39;100.00
70027;BME280;57506;50.092;15.804;2023-11-21T10:28:59;98693.13;;;9.39;100.00
70027;BME280;57506;50.092;15.804;2023-11-21T10:31:27;98693.31;;;9.38;100.00
70027;BME280;57506;50.092;15.804;2023-11-21T10:33:53;98708.09;;;9.55;100.00
70027;BME280;57506;50.092;15.804;2023-11-21T10:36:28;98710.81;;;9.62;100.00
70027;BME280;57506;50.092;15.804;2023-11-21T10:38:54;98706.91;;;9.64;100.00
70027;BME280;57506;50.092;15.804;2023-11-21T10:41:20;98706.47;;;9.61;100.00
70027;BME280;57506;50.092;15.804;2023-11-21T10:43:46;98704.22;;;9.64;100.00
70027;BME280;57506;50.092;15.804;2023-11-21T10:46:13;98702.75;;;9.62;100.00
70027;BME280;57506;50.092;15.804;2023-11-21T10:48:41;98699.06;;;9.69;100.00
70027;BME280;57506;50.092;15.804;2023-11-21T10:51:08;98709.09;;;9.89;100.00
70027;BME280;57506;50.092;15.804;2023-11-21T10:53:39;98703.47;;;9.83;100.00
70027;BME280;57506;50.092;15.804;2023-11-21T10:56:06;98707.84;;;9.91;100.00
70027;BME280;57506;50.092;15.804;2023-11-21T10:58:35;98703.91;;;9.94;100.00
70027;BME280;57506;50.092;15.804;2023-11-21T11:01:03;98710.16;;;10.07;100.00
70027;BME280;57506;50.092;15.804;2023-11-21T11:03:32;98699.16;;;9.96;100.00
70027;BME280;57506;50.092;15.804;2023-11-21T11:06:02;98706.59;;;9.94;100.00
70027;BME280;57506;50.092;15.804;2023-11-21T11:08:28;98701.88;;;10.02;100.00
70027;BME280;57506;50.092;15.804;2023-11-21T11:10:55;98707.09;;;10.17;100.00
70027;BME280;57506;50.092;15.804;2023-11-21T11:13:21;98705.84;;;10.13;100.00
70027;BME280;57506;50.092;15.804;2023-11-21T11:15:48;98706.47;;;10.15;100.00
70027;BME280;57506;50.092;15.804;2023-11-21T11:18:15;98698.66;;;10.20;100.00
70027;BME280;57506;50.092;15.804;2023-11-21T11:20:43;98702.81;;;10.23;100.00
70027;BME280;57506;50.092;15.804;2023-11-21T11:28:43;98697.00;;;10.26;100.00
70027;BME280;57506;50.092;15.804;2023-11-21T11:34:06;98695.06;;;10.06;100.00
70027;BME280;57506;50.092;15.804;2023-11-21T11:36:47;98701.66;;;9.97;100.00
70027;BME280;57506;50.092;15.804;2023-11-21T11:39:41;98695.44;;;9.90;100.00
70027;BME280;57506;50.092;15.804;2023-11-21T11:42:15;98700.38;;;9.87;100.00
70027;BME280;57506;50.092;15.804;2023-11-21T11:47:15;98689.84;;;9.98;100.00
70027;BME280;57506;50.092;15.804;2023-11-21T11:55:11;98677.03;;;10.00;100.00
70027;BME280;57506;50.092;15.804;2023-11-21T11:57:38;98706.25;;;10.03;100.00
70027;BME280;57506;50.092;15.804;2023-11-21T12:00:07;98700.38;;;9.93;100.00
70027;BME280;57506;50.092;15.804;2023-11-21T12:02:40;98696.38;;;10.24;100.00
70027;BME280;57506;50.092;15.804;2023-11-21T12:05:10;98691.22;;;10.35;100.00
70027;BME280;57506;50.092;15.804;2023-11-21T12:07:55;98699.28;;;10.29;97.96
70027;BME280;57506;50.092;15.804;2023-11-21T12:10:27;98696.19;;;10.32;96.73
70027;BME280;57506;50.092;15.804;2023-11-21T12:13:13;98700.53;;;10.20;94.24
70027;BME280;57506;50.092;15.804;2023-11-21T12:15:39;98704.25;;;10.25;97.51
70027;BME280;57506;50.092;15.804;2023-11-21T12:18:07;98691.78;;;10.17;96.46
70027;BME280;57506;50.092;15.804;2023-11-21T12:20:32;98692.28;;;10.47;96.77
70027;BME280;57506;50.092;15.804;2023-11-21T12:23:04;98703.25;;;10.33;95.08
70027;BME280;57506;50.092;15.804;2023-11-21T12:25:31;98704.69;;;10.29;96.18
70027;BME280;57506;50.092;15.804;2023-11-21T12:27:59;98697.44;;;10.29;97.94
70027;BME280;57506;50.092;15.804;2023-11-21T12:30:27;98702.94;;;10.14;95.50
70027;BME280;57506;50.092;15.804;2023-11-21T12:33:01;98696.66;;;9.88;93.38
70027;BME280;57506;50.092;15.804;2023-11-21T12:35:30;98695.78;;;9.80;96.23
70027;BME280;57506;50.092;15.804;2023-11-21T12:38:03;98704.50;;;9.82;94.58
70027;BME280;57506;50.092;15.804;2023-11-21T12:40:30;98700.50;;;9.65;94.43
70027;BME280;57506;50.092;15.804;2023-11-21T12:42:57;98702.75;;;9.62;95.33
70027;BME280;57506;50.092;15.804;2023-11-21T12:45:28;98709.44;;;9.72;98.20
70027;BME280;57506;50.092;15.804;2023-11-21T12:47:55;98711.28;;;9.72;97.73
70027;BME280;57506;50.092;15.804;2023-11-21T12:50:25;98707.34;;;9.68;97.43
70027;BME280;57506;50.092;15.804;2023-11-21T12:52:57;98707.34;;;9.68;97.81
70027;BME280;57506;50.092;15.804;2023-11-21T12:55:24;98719.75;;;9.69;97.32
70027;BME280;57506;50.092;15.804;2023-11-21T12:57:55;98714.97;;;9.58;96.83
70027;BME280;57506;50.092;15.804;2023-11-21T13:00:47;98707.47;;;9.53;97.70
70027;BME280;57506;50.092;15.804;2023-11-21T13:03:14;98713.03;;;9.52;99.09
70027;BME280;57506;50.092;15.804;2023-11-21T13:05:50;98718.00;;;9.48;99.48